sensor_id;sensor_type;location;lat;lon;timestamp;P1;durP1;ratioP1;P2;durP2;ratioP2
64282;SDS011;50497;50.720;-2.084;2023-07-13T00:00:23;12.93;;;3.00;;
64282;SDS011;50497;50.720;-2.084;2023-07-13T00:02:48;10.20;;;3.08;;
64282;SDS011;50497;50.720;-2.084;2023-07-13T00:05:14;9.48;;;2.70;;
64282;SDS011;50497;50.720;-2.084;2023-07-13T00:07:39;9.02;;;2.78;;
64282;SDS011;50497;50.720;-2.084;2023-07-13T00:10:05;9.95;;;3.17;;
64282;SDS011;50497;50.720;-2.084;2023-07-13T00:12:33;9.00;;;2.95;;
64282;SDS011;50497;50.720;-2.084;2023-07-13T00:15:01;11.38;;;2.78;;
64282;SDS011;50497;50.720;-2.084;2023-07-13T00:17:29;8.52;;;2.70;;
64282;SDS011;50497;50.720;-2.084;2023-07-13T00:19:55;9.63;;;3.08;;
64282;SDS011;50497;50.720;-2.084;2023-07-13T00:22:22;10.30;;;2.55;;
64282;SDS011;50497;50.720;-2.084;2023-07-13T00:24:50;10.48;;;2.75;;
64282;SDS011;50497;50.720;-2.084;2023-07-13T00:27:21;9.57;;;2.75;;
64282;SDS011;50497;50.720;-2.084;2023-07-13T00:29:47;7.75;;;2.60;;
64282;SDS011;50497;50.720;-2.084;2023-07-13T00:32:12;10.75;;;2.78;;
64282;SDS011;50497;50.720;-2.084;2023-07-13T00:34:38;12.23;;;3.17;;
64282;SDS011;50497;50.720;-2.084;2023-07-13T00:37:04;7.75;;;2.60;;
64282;SDS011;50497;50.720;-2.084;2023-07-13T00:39:31;11.32;;;2.60;;
64282;SDS011;50497;50.720;-2.084;2023-07-13T00:41:57;10.45;;;2.60;;
64282;SDS011;50497;50.720;-2.084;2023-07-13T00:44:23;8.02;;;2.60;;
64282;SDS011;50497;50.720;-2.084;2023-07-13T00:46:48;6.70;;;2.50;;
64282;SDS011;50497;50.720;-2.084;2023-07-13T00:49:15;8.80;;;2.85;;
64282;SDS011;50497;50.720;-2.084;2023-07-13T00:52:16;10.32;;;2.78;;
64282;SDS011;50497;50.720;-2.084;2023-07-13T00:54:36;10.32;;;2.55;;
64282;SDS011;50497;50.720;-2.084;2023-07-13T00:57:05;8.07;;;2.53;;
64282;SDS011;50497;50.720;-2.084;2023-07-13T00:59:35;9.95;;;2.97;;
64282;SDS011;50497;50.720;-2.084;2023-07-13T01:02:02;9.63;;;2.80;;
64282;SDS011;50497;50.720;-2.084;2023-07-13T01:04:28;8.45;;;2.83;;
64282;SDS011;50497;50.720;-2.084;2023-07-13T01:06:53;9.75;;;2.60;;
64282;SDS011;50497;50.720;-2.084;2023-07-13T01:09:19;8.18;;;2.88;;
64282;SDS011;50497;50.720;-2.084;2023-07-13T01:11:46;9.55;;;2.50;;
64282;SDS011;50497;50.720;-2.084;2023-07-13T01:16:37;8.82;;;2.67;;
64282;SDS011;50497;50.720;-2.084;2023-07-13T01:19:08;8.93;;;2.50;;
64282;SDS011;50497;50.720;-2.084;2023-07-13T01:21:42;8.48;;;2.60;;
64282;SDS011;50497;50.720;-2.084;2023-07-13T01:24:08;13.07;;;3.38;;
64282;SDS011;50497;50.720;-2.084;2023-07-13T01:26:34;10.45;;;2.88;;
64282;SDS011;50497;50.720;-2.084;2023-07-13T01:28:59;8.38;;;2.70;;
64282;SDS011;50497;50.720;-2.084;2023-07-13T01:31:25;11.38;;;2.90;;
64282;SDS011;50497;50.720;-2.084;2023-07-13T01:33:51;7.50;;;2.60;;
64282;SDS011;50497;50.720;-2.084;2023-07-13T01:36:16;10.00;;;2.90;;
64282;SDS011;50497;50.720;-2.084;2023-07-13T01:38:42;8.27;;;2.88;;
64282;SDS011;50497;50.720;-2.084;2023-07-13T01:41:07;8.45;;;2.80;;
64282;SDS011;50497;50.720;-2.084;2023-07-13T01:43:33;9.73;;;3.20;;
64282;SDS011;50497;50.720;-2.084;2023-07-13T01:45:58;7.80;;;2.60;;
64282;SDS011;50497;50.720;-2.084;2023-07-13T01:48:24;10.10;;;3.15;;
64282;SDS011;50497;50.720;-2.084;2023-07-13T01:50:49;4.25;;;1.75;;
64282;SDS011;50497;50.720;-2.084;2023-07-13T01:53:15;0.00;;;0.00;;
64282;SDS011;50497;50.720;-2.084;2023-07-13T01:55:41;0.00;;;0.00;;
64282;SDS011;50497;50.720;-2.084;2023-07-13T01:58:07;0.00;;;0.00;;
64282;SDS011;50497;50.720;-2.084;2023-07-13T02:00:33;0.00;;;0.00;;
64282;SDS011;50497;50.720;-2.084;2023-07-13T02:02:59;0.00;;;0.00;;
64282;SDS011;50497;50.720;-2.084;2023-07-13T02:05:24;0.00;;;0.00;;
64282;SDS011;50497;50.720;-2.084;2023-07-13T02:07:50;0.00;;;0.00;;
64282;SDS011;50497;50.720;-2.084;2023-07-13T02:10:16;0.00;;;0.00;;
64282;SDS011;50497;50.720;-2.084;2023-07-13T02:12:42;0.00;;;0.00;;
64282;SDS011;50497;50.720;-2.084;2023-07-13T02:15:07;0.00;;;0.00;;
64282;SDS011;50497;50.720;-2.084;2023-07-13T02:20:00;0.00;;;0.00;;
64282;SDS011;50497;50.720;-2.084;2023-07-13T02:22:25;0.00;;;0.00;;
64282;SDS011;50497;50.720;-2.084;2023-07-13T02:24:51;0.00;;;0.00;;
64282;SDS011;50497;50.720;-2.084;2023-07-13T02:27:16;0.00;;;0.00;;
64282;SDS011;50497;50.720;-2.084;2023-07-13T02:29:41;0.00;;;0.00;;
64282;SDS011;50497;50.720;-2.084;2023-07-13T02:32:07;0.00;;;0.00;;
64282;SDS011;50497;50.720;-2.084;2023-07-13T02:34:33;0.00;;;0.00;;
64282;SDS011;50497;50.720;-2.084;2023-07-13T02:36:59;0.00;;;0.00;;
64282;SDS011;50497;50.720;-2.084;2023-07-13T02:39:24;0.00;;;0.00;;
64282;SDS011;50497;50.720;-2.084;2023-07-13T02:41:50;0.15;;;0.15;;
64282;SDS011;50497;50.720;-2.084;2023-07-13T02:44:15;0.57;;;0.32;;
64282;SDS011;50497;50.720;-2.084;2023-07-13T02:46:41;0.68;;;0.20;;
64282;SDS011;50497;50.720;-2.084;2023-07-13T02:49:06;2.75;;;1.55;;
64282;SDS011;50497;50.720;-2.084;2023-07-13T02:51:32;0.52;;;0.30;;
64282;SDS011;50497;50.720;-2.084;2023-07-13T02:53:59;0.30;;;0.30;;
64282;SDS011;50497;50.720;-2.084;2023-07-13T02:56:29;5.57;;;4.22;;
64282;SDS011;50497;50.720;-2.084;2023-07-13T02:58:56;6.97;;;4.35;;
64282;SDS011;50497;50.720;-2.084;2023-07-13T03:03:48;5.00;;;3.47;;
64282;SDS011;50497;50.720;-2.084;2023-07-13T03:06:14;7.10;;;3.88;;
64282;SDS011;50497;50.720;-2.084;2023-07-13T03:08:40;8.88;;;4.05;;
64282;SDS011;50497;50.720;-2.084;2023-07-13T03:11:16;13.40;;;11.27;;
64282;SDS011;50497;50.720;-2.084;2023-07-13T03:13:43;7.60;;;4.97;;
64282;SDS011;50497;50.720;-2.084;2023-07-13T03:16:09;8.20;;;4.60;;
64282;SDS011;50497;50.720;-2.084;2023-07-13T03:18:36;12.50;;;10.10;;
64282;SDS011;50497;50.720;-2.084;2023-07-13T03:21:02;9.82;;;4.75;;
64282;SDS011;50497;50.720;-2.084;2023-07-13T03:23:28;9.90;;;3.30;;
64282;SDS011;50497;50.720;-2.084;2023-07-13T03:26:27;10.63;;;3.15;;
64282;SDS011;50497;50.720;-2.084;2023-07-13T03:28:46;10.68;;;3.20;;
64282;SDS011;50497;50.720;-2.084;2023-07-13T03:31:13;11.50;;;3.80;;
64282;SDS011;50497;50.720;-2.084;2023-07-13T03:33:41;10.15;;;3.20;;
64282;SDS011;50497;50.720;-2.084;2023-07-13T03:36:12;8.77;;;3.00;;
64282;SDS011;50497;50.720;-2.084;2023-07-13T03:38:39;8.77;;;3.00;;
64282;SDS011;50497;50.720;-2.084;2023-07-13T03:41:05;8.82;;;3.33;;
64282;SDS011;50497;50.720;-2.084;2023-07-13T03:43:30;8.55;;;3.10;;
64282;SDS011;50497;50.720;-2.084;2023-07-13T03:45:56;9.60;;;3.17;;
64282;SDS011;50497;50.720;-2.084;2023-07-13T03:48:21;8.70;;;3.15;;
64282;SDS011;50497;50.720;-2.084;2023-07-13T03:50:47;9.20;;;3.35;;
64282;SDS011;50497;50.720;-2.084;2023-07-13T03:53:14;7.10;;;2.80;;
64282;SDS011;50497;50.720;-2.084;2023-07-13T03:55:40;7.88;;;2.92;;
64282;SDS011;50497;50.720;-2.084;2023-07-13T04:00:51;8.27;;;2.97;;
64282;SDS011;50497;50.720;-2.084;2023-07-13T04:03:17;8.38;;;3.15;;
64282;SDS011;50497;50.720;-2.084;2023-07-13T04:05:43;8.60;;;3.15;;
64282;SDS011;50497;50.720;-2.084;2023-07-13T04:08:08;8.60;;;3.38;;
64282;SDS011;50497;50.720;-2.084;2023-07-13T04:10:34;11.25;;;3.40;;
64282;SDS011;50497;50.720;-2.084;2023-07-13T04:12:59;9.40;;;3.17;;
64282;SDS011;50497;50.720;-2.084;2023-07-13T04:15:24;8.55;;;3.28;;
64282;SDS011;50497;50.720;-2.084;2023-07-13T04:17:50;8.48;;;2.90;;
64282;SDS011;50497;50.720;-2.084;2023-07-13T04:20:15;9.90;;;3.15;;
64282;SDS011;50497;50.720;-2.084;2023-07-13T04:22:41;7.95;;;3.08;;
64282;SDS011;50497;50.720;-2.084;2023-07-13T04:25:06;11.05;;;3.50;;
64282;SDS011;50497;50.720;-2.084;2023-07-13T04:27:32;6.93;;;3.00;;
64282;SDS011;50497;50.720;-2.084;2023-07-13T04:29:57;7.63;;;2.85;;
64282;SDS011;50497;50.720;-2.084;2023-07-13T04:32:22;9.05;;;2.63;;
64282;SDS011;50497;50.720;-2.084;2023-07-13T04:34:48;10.15;;;3.42;;
64282;SDS011;50497;50.720;-2.084;2023-07-13T04:37:18;7.50;;;2.78;;
64282;SDS011;50497;50.720;-2.084;2023-07-13T04:39:43;8.77;;;3.30;;
64282;SDS011;50497;50.720;-2.084;2023-07-13T04:42:09;11.50;;;3.47;;
64282;SDS011;50497;50.720;-2.084;2023-07-13T04:44:34;12.75;;;3.20;;
64282;SDS011;50497;50.720;-2.084;2023-07-13T04:47:00;8.38;;;2.85;;
64282;SDS011;50497;50.720;-2.084;2023-07-13T04:49:25;8.77;;;3.17;;
64282;SDS011;50497;50.720;-2.084;2023-07-13T04:51:50;7.07;;;2.90;;
64282;SDS011;50497;50.720;-2.084;2023-07-13T04:54:16;9.27;;;3.35;;
64282;SDS011;50497;50.720;-2.084;2023-07-13T04:56:42;7.28;;;2.70;;
64282;SDS011;50497;50.720;-2.084;2023-07-13T04:59:07;7.53;;;3.05;;
64282;SDS011;50497;50.720;-2.084;2023-07-13T05:01:32;8.27;;;2.65;;
64282;SDS011;50497;50.720;-2.084;2023-07-13T05:03:58;8.50;;;2.92;;
64282;SDS011;50497;50.720;-2.084;2023-07-13T05:06:24;7.50;;;2.80;;
64282;SDS011;50497;50.720;-2.084;2023-07-13T05:08:49;7.88;;;2.92;;
64282;SDS011;50497;50.720;-2.084;2023-07-13T05:11:15;8.77;;;3.00;;
64282;SDS011;50497;50.720;-2.084;2023-07-13T05:13:40;8.60;;;2.95;;
64282;SDS011;50497;50.720;-2.084;2023-07-13T05:16:05;7.30;;;2.67;;
64282;SDS011;50497;50.720;-2.084;2023-07-13T05:18:32;7.25;;;2.60;;
64282;SDS011;50497;50.720;-2.084;2023-07-13T05:20:59;9.43;;;2.78;;
64282;SDS011;50497;50.720;-2.084;2023-07-13T05:23:25;6.68;;;3.00;;
64282;SDS011;50497;50.720;-2.084;2023-07-13T05:25:50;7.05;;;3.05;;
64282;SDS011;50497;50.720;-2.084;2023-07-13T05:28:15;6.78;;;2.53;;
64282;SDS011;50497;50.720;-2.084;2023-07-13T05:30:45;7.95;;;2.75;;
64282;SDS011;50497;50.720;-2.084;2023-07-13T05:33:14;7.70;;;3.00;;
64282;SDS011;50497;50.720;-2.084;2023-07-13T05:35:39;9.20;;;3.10;;
64282;SDS011;50497;50.720;-2.084;2023-07-13T05:38:05;8.30;;;2.90;;
64282;SDS011;50497;50.720;-2.084;2023-07-13T05:40:31;6.85;;;2.90;;
64282;SDS011;50497;50.720;-2.084;2023-07-13T05:42:56;7.82;;;2.90;;
64282;SDS011;50497;50.720;-2.084;2023-07-13T05:45:22;8.23;;;2.90;;
64282;SDS011;50497;50.720;-2.084;2023-07-13T05:47:47;7.55;;;3.00;;
64282;SDS011;50497;50.720;-2.084;2023-07-13T05:50:13;7.50;;;2.83;;
64282;SDS011;50497;50.720;-2.084;2023-07-13T05:52:38;7.47;;;2.78;;
64282;SDS011;50497;50.720;-2.084;2023-07-13T05:55:04;8.07;;;3.00;;
64282;SDS011;50497;50.720;-2.084;2023-07-13T05:57:30;6.38;;;2.88;;
64282;SDS011;50497;50.720;-2.084;2023-07-13T05:59:56;6.88;;;2.80;;
64282;SDS011;50497;50.720;-2.084;2023-07-13T06:02:21;8.35;;;3.13;;
64282;SDS011;50497;50.720;-2.084;2023-07-13T06:04:46;9.00;;;2.92;;
64282;SDS011;50497;50.720;-2.084;2023-07-13T06:07:12;11.02;;;3.20;;
64282;SDS011;50497;50.720;-2.084;2023-07-13T06:09:37;7.63;;;3.00;;
64282;SDS011;50497;50.720;-2.084;2023-07-13T06:12:03;8.27;;;3.00;;
64282;SDS011;50497;50.720;-2.084;2023-07-13T06:14:29;8.07;;;3.03;;
64282;SDS011;50497;50.720;-2.084;2023-07-13T06:16:55;7.80;;;2.80;;
64282;SDS011;50497;50.720;-2.084;2023-07-13T06:19:20;9.13;;;2.90;;
64282;SDS011;50497;50.720;-2.084;2023-07-13T06:21:45;8.85;;;3.00;;
64282;SDS011;50497;50.720;-2.084;2023-07-13T06:24:11;7.15;;;2.85;;
64282;SDS011;50497;50.720;-2.084;2023-07-13T06:26:37;10.77;;;4.57;;
64282;SDS011;50497;50.720;-2.084;2023-07-13T06:29:02;7.80;;;2.97;;
64282;SDS011;50497;50.720;-2.084;2023-07-13T06:31:27;8.20;;;2.80;;
64282;SDS011;50497;50.720;-2.084;2023-07-13T06:33:53;8.18;;;2.60;;
64282;SDS011;50497;50.720;-2.084;2023-07-13T06:36:18;10.85;;;3.15;;
64282;SDS011;50497;50.720;-2.084;2023-07-13T06:38:44;8.13;;;2.80;;
64282;SDS011;50497;50.720;-2.084;2023-07-13T06:41:09;7.38;;;2.90;;
64282;SDS011;50497;50.720;-2.084;2023-07-13T06:43:35;7.90;;;2.72;;
64282;SDS011;50497;50.720;-2.084;2023-07-13T06:46:00;7.68;;;2.60;;
64282;SDS011;50497;50.720;-2.084;2023-07-13T06:48:26;10.13;;;2.90;;
64282;SDS011;50497;50.720;-2.084;2023-07-13T06:50:52;9.65;;;2.80;;
64282;SDS011;50497;50.720;-2.084;2023-07-13T06:53:18;7.80;;;2.60;;
64282;SDS011;50497;50.720;-2.084;2023-07-13T06:58:10;6.45;;;2.35;;
64282;SDS011;50497;50.720;-2.084;2023-07-13T07:00:36;8.55;;;2.63;;
64282;SDS011;50497;50.720;-2.084;2023-07-13T07:03:02;10.35;;;2.63;;
64282;SDS011;50497;50.720;-2.084;2023-07-13T07:05:27;6.60;;;2.65;;
64282;SDS011;50497;50.720;-2.084;2023-07-13T07:07:54;6.53;;;2.38;;
64282;SDS011;50497;50.720;-2.084;2023-07-13T07:10:20;7.85;;;2.55;;
64282;SDS011;50497;50.720;-2.084;2023-07-13T07:12:46;6.55;;;1.98;;
64282;SDS011;50497;50.720;-2.084;2023-07-13T07:15:11;7.05;;;2.30;;
64282;SDS011;50497;50.720;-2.084;2023-07-13T07:17:37;6.38;;;2.05;;
64282;SDS011;50497;50.720;-2.084;2023-07-13T07:20:02;5.60;;;2.28;;
64282;SDS011;50497;50.720;-2.084;2023-07-13T07:24:55;6.63;;;2.17;;
64282;SDS011;50497;50.720;-2.084;2023-07-13T07:27:21;5.45;;;2.08;;
64282;SDS011;50497;50.720;-2.084;2023-07-13T07:29:47;7.40;;;2.20;;
64282;SDS011;50497;50.720;-2.084;2023-07-13T07:32:12;6.53;;;2.10;;
64282;SDS011;50497;50.720;-2.084;2023-07-13T07:34:37;7.35;;;2.20;;
64282;SDS011;50497;50.720;-2.084;2023-07-13T07:37:03;5.90;;;1.70;;
64282;SDS011;50497;50.720;-2.084;2023-07-13T07:39:29;6.13;;;1.80;;
64282;SDS011;50497;50.720;-2.084;2023-07-13T07:41:54;4.65;;;1.50;;
64282;SDS011;50497;50.720;-2.084;2023-07-13T07:44:20;5.40;;;1.67;;
64282;SDS011;50497;50.720;-2.084;2023-07-13T07:46:46;5.40;;;1.73;;
64282;SDS011;50497;50.720;-2.084;2023-07-13T07:49:11;4.00;;;1.50;;
64282;SDS011;50497;50.720;-2.084;2023-07-13T07:51:38;5.13;;;1.38;;
64282;SDS011;50497;50.720;-2.084;2023-07-13T07:54:03;4.35;;;1.50;;
64282;SDS011;50497;50.720;-2.084;2023-07-13T07:56:29;4.32;;;1.33;;
64282;SDS011;50497;50.720;-2.084;2023-07-13T07:58:55;3.25;;;1.30;;
64282;SDS011;50497;50.720;-2.084;2023-07-13T08:01:20;4.53;;;1.52;;
64282;SDS011;50497;50.720;-2.084;2023-07-13T08:03:45;5.35;;;1.48;;
64282;SDS011;50497;50.720;-2.084;2023-07-13T08:06:11;3.45;;;1.30;;
64282;SDS011;50497;50.720;-2.084;2023-07-13T08:08:36;3.47;;;1.60;;
64282;SDS011;50497;50.720;-2.084;2023-07-13T08:11:03;4.40;;;1.63;;
64282;SDS011;50497;50.720;-2.084;2023-07-13T08:13:29;3.95;;;1.50;;
64282;SDS011;50497;50.720;-2.084;2023-07-13T08:15:54;3.20;;;1.40;;
64282;SDS011;50497;50.720;-2.084;2023-07-13T08:18:20;4.72;;;1.55;;
64282;SDS011;50497;50.720;-2.084;2023-07-13T08:20:45;5.10;;;1.38;;
64282;SDS011;50497;50.720;-2.084;2023-07-13T08:23:11;3.13;;;1.30;;
64282;SDS011;50497;50.720;-2.084;2023-07-13T08:25:36;7.20;;;2.55;;
64282;SDS011;50497;50.720;-2.084;2023-07-13T08:28:02;5.03;;;1.38;;
64282;SDS011;50497;50.720;-2.084;2023-07-13T08:32:53;4.45;;;1.40;;
64282;SDS011;50497;50.720;-2.084;2023-07-13T08:35:19;4.10;;;1.20;;
64282;SDS011;50497;50.720;-2.084;2023-07-13T08:37:44;3.53;;;1.20;;
64282;SDS011;50497;50.720;-2.084;2023-07-13T08:40:10;4.70;;;1.50;;
64282;SDS011;50497;50.720;-2.084;2023-07-13T08:42:38;6.05;;;1.30;;
64282;SDS011;50497;50.720;-2.084;2023-07-13T08:48:52;4.35;;;1.40;;
64282;SDS011;50497;50.720;-2.084;2023-07-13T08:51:23;6.38;;;1.48;;
64282;SDS011;50497;50.720;-2.084;2023-07-13T08:54:02;3.67;;;1.40;;
64282;SDS011;50497;50.720;-2.084;2023-07-13T08:56:31;6.68;;;1.70;;
64282;SDS011;50497;50.720;-2.084;2023-07-13T08:58:58;4.60;;;1.70;;
64282;SDS011;50497;50.720;-2.084;2023-07-13T09:01:45;6.47;;;2.22;;
64282;SDS011;50497;50.720;-2.084;2023-07-13T09:04:14;4.45;;;1.58;;
64282;SDS011;50497;50.720;-2.084;2023-07-13T09:12:56;4.28;;;1.58;;
64282;SDS011;50497;50.720;-2.084;2023-07-13T09:15:34;5.30;;;1.70;;
64282;SDS011;50497;50.720;-2.084;2023-07-13T09:18:10;5.07;;;1.75;;
64282;SDS011;50497;50.720;-2.084;2023-07-13T09:23:12;4.68;;;1.30;;
64282;SDS011;50497;50.720;-2.084;2023-07-13T09:25:42;4.93;;;1.60;;
64282;SDS011;50497;50.720;-2.084;2023-07-13T09:28:19;6.57;;;1.70;;
64282;SDS011;50497;50.720;-2.084;2023-07-13T09:30:52;5.95;;;1.90;;
64282;SDS011;50497;50.720;-2.084;2023-07-13T09:33:23;6.47;;;1.88;;
64282;SDS011;50497;50.720;-2.084;2023-07-13T09:35:49;5.80;;;1.77;;
64282;SDS011;50497;50.720;-2.084;2023-07-13T09:46:38;6.53;;;2.00;;
64282;SDS011;50497;50.720;-2.084;2023-07-13T09:49:09;5.70;;;1.90;;
64282;SDS011;50497;50.720;-2.084;2023-07-13T09:51:36;6.60;;;2.15;;
64282;SDS011;50497;50.720;-2.084;2023-07-13T09:54:03;8.30;;;1.85;;
64282;SDS011;50497;50.720;-2.084;2023-07-13T09:56:29;6.40;;;1.90;;
64282;SDS011;50497;50.720;-2.084;2023-07-13T09:58:55;8.02;;;2.00;;
64282;SDS011;50497;50.720;-2.084;2023-07-13T10:01:32;7.53;;;2.10;;
64282;SDS011;50497;50.720;-2.084;2023-07-13T10:04:00;5.97;;;2.20;;
64282;SDS011;50497;50.720;-2.084;2023-07-13T10:06:26;5.35;;;1.90;;
64282;SDS011;50497;50.720;-2.084;2023-07-13T10:08:52;5.78;;;2.15;;
64282;SDS011;50497;50.720;-2.084;2023-07-13T10:11:28;6.68;;;1.95;;
64282;SDS011;50497;50.720;-2.084;2023-07-13T10:13:56;6.60;;;2.10;;
64282;SDS011;50497;50.720;-2.084;2023-07-13T10:16:25;7.40;;;2.30;;
64282;SDS011;50497;50.720;-2.084;2023-07-13T10:18:57;6.05;;;2.30;;
64282;SDS011;50497;50.720;-2.084;2023-07-13T10:21:27;5.70;;;2.30;;
64282;SDS011;50497;50.720;-2.084;2023-07-13T10:23:59;7.72;;;2.22;;
64282;SDS011;50497;50.720;-2.084;2023-07-13T10:26:32;5.70;;;2.20;;
64282;SDS011;50497;50.720;-2.084;2023-07-13T10:29:03;6.60;;;2.08;;
64282;SDS011;50497;50.720;-2.084;2023-07-13T10:31:33;5.65;;;2.30;;
64282;SDS011;50497;50.720;-2.084;2023-07-13T10:34:01;7.40;;;2.30;;
64282;SDS011;50497;50.720;-2.084;2023-07-13T10:37:00;6.80;;;2.03;;
64282;SDS011;50497;50.720;-2.084;2023-07-13T10:39:20;6.88;;;2.10;;
64282;SDS011;50497;50.720;-2.084;2023-07-13T10:41:58;9.35;;;2.30;;
64282;SDS011;50497;50.720;-2.084;2023-07-13T10:44:27;7.50;;;1.98;;
64282;SDS011;50497;50.720;-2.084;2023-07-13T10:46:57;6.30;;;2.28;;
64282;SDS011;50497;50.720;-2.084;2023-07-13T10:49:26;7.38;;;2.40;;
64282;SDS011;50497;50.720;-2.084;2023-07-13T10:51:53;6.35;;;2.42;;
64282;SDS011;50497;50.720;-2.084;2023-07-13T10:54:20;8.93;;;2.80;;
64282;SDS011;50497;50.720;-2.084;2023-07-13T10:56:49;9.82;;;2.45;;
64282;SDS011;50497;50.720;-2.084;2023-07-13T10:59:33;8.30;;;2.60;;
64282;SDS011;50497;50.720;-2.084;2023-07-13T11:02:06;6.85;;;2.25;;
64282;SDS011;50497;50.720;-2.084;2023-07-13T11:04:47;9.77;;;2.67;;
64282;SDS011;50497;50.720;-2.084;2023-07-13T11:07:19;9.95;;;3.10;;
64282;SDS011;50497;50.720;-2.084;2023-07-13T11:09:58;9.05;;;3.00;;
64282;SDS011;50497;50.720;-2.084;2023-07-13T11:12:51;10.57;;;3.10;;
64282;SDS011;50497;50.720;-2.084;2023-07-13T11:15:26;11.13;;;3.00;;
64282;SDS011;50497;50.720;-2.084;2023-07-13T11:17:54;10.85;;;3.58;;
64282;SDS011;50497;50.720;-2.084;2023-07-13T11:20:48;9.70;;;3.33;;
64282;SDS011;50497;50.720;-2.084;2023-07-13T11:25:41;10.65;;;3.40;;
64282;SDS011;50497;50.720;-2.084;2023-07-13T11:33:24;10.70;;;3.40;;
64282;SDS011;50497;50.720;-2.084;2023-07-13T11:36:13;10.25;;;3.20;;
64282;SDS011;50497;50.720;-2.084;2023-07-13T11:38:41;10.48;;;3.00;;
64282;SDS011;50497;50.720;-2.084;2023-07-13T11:41:25;10.00;;;2.92;;
64282;SDS011;50497;50.720;-2.084;2023-07-13T11:43:55;8.70;;;2.90;;
64282;SDS011;50497;50.720;-2.084;2023-07-13T11:46:30;8.32;;;2.90;;
64282;SDS011;50497;50.720;-2.084;2023-07-13T11:48:55;9.88;;;3.30;;
64282;SDS011;50497;50.720;-2.084;2023-07-13T11:53:53;8.95;;;2.95;;
64282;SDS011;50497;50.720;-2.084;2023-07-13T11:56:22;8.50;;;2.67;;
64282;SDS011;50497;50.720;-2.084;2023-07-13T11:58:49;10.35;;;2.65;;
64282;SDS011;50497;50.720;-2.084;2023-07-13T12:01:26;7.63;;;2.72;;
64282;SDS011;50497;50.720;-2.084;2023-07-13T12:03:57;8.85;;;2.63;;
64282;SDS011;50497;50.720;-2.084;2023-07-13T12:06:34;14.27;;;3.33;;
64282;SDS011;50497;50.720;-2.084;2023-07-13T12:09:12;7.60;;;2.42;;
64282;SDS011;50497;50.720;-2.084;2023-07-13T12:11:41;5.35;;;2.20;;
64282;SDS011;50497;50.720;-2.084;2023-07-13T12:14:17;7.70;;;2.50;;
64282;SDS011;50497;50.720;-2.084;2023-07-13T12:16:45;7.47;;;2.75;;
64282;SDS011;50497;50.720;-2.084;2023-07-13T12:19:17;9.32;;;2.40;;
64282;SDS011;50497;50.720;-2.084;2023-07-13T12:21:45;5.88;;;2.28;;
64282;SDS011;50497;50.720;-2.084;2023-07-13T12:24:13;6.38;;;2.75;;
64282;SDS011;50497;50.720;-2.084;2023-07-13T12:26:41;7.88;;;2.38;;
64282;SDS011;50497;50.720;-2.084;2023-07-13T12:31:39;8.85;;;2.70;;
64282;SDS011;50497;50.720;-2.084;2023-07-13T12:34:11;9.70;;;3.20;;
64282;SDS011;50497;50.720;-2.084;2023-07-13T12:39:25;8.30;;;2.33;;
64282;SDS011;50497;50.720;-2.084;2023-07-13T12:44:52;6.22;;;2.17;;
64282;SDS011;50497;50.720;-2.084;2023-07-13T12:47:23;10.75;;;3.88;;
64282;SDS011;50497;50.720;-2.084;2023-07-13T12:52:28;9.13;;;3.80;;
64282;SDS011;50497;50.720;-2.084;2023-07-13T12:54:56;11.35;;;5.65;;
64282;SDS011;50497;50.720;-2.084;2023-07-13T12:57:24;5.90;;;2.38;;
64282;SDS011;50497;50.720;-2.084;2023-07-13T12:59:54;9.15;;;5.93;;
64282;SDS011;50497;50.720;-2.084;2023-07-13T13:04:48;7.05;;;2.85;;
64282;SDS011;50497;50.720;-2.084;2023-07-13T13:07:13;10.43;;;5.25;;
64282;SDS011;50497;50.720;-2.084;2023-07-13T13:12:04;7.27;;;2.70;;
64282;SDS011;50497;50.720;-2.084;2023-07-13T13:14:31;10.30;;;8.88;;
64282;SDS011;50497;50.720;-2.084;2023-07-13T13:16:57;12.60;;;8.07;;
64282;SDS011;50497;50.720;-2.084;2023-07-13T13:21:49;6.85;;;2.58;;
64282;SDS011;50497;50.720;-2.084;2023-07-13T13:24:18;10.30;;;9.25;;
64282;SDS011;50497;50.720;-2.084;2023-07-13T13:26:45;5.18;;;2.75;;
64282;SDS011;50497;50.720;-2.084;2023-07-13T13:29:22;5.57;;;3.85;;
64282;SDS011;50497;50.720;-2.084;2023-07-13T13:31:52;0.00;;;0.00;;
64282;SDS011;50497;50.720;-2.084;2023-07-13T13:34:19;1.63;;;1.45;;
64282;SDS011;50497;50.720;-2.084;2023-07-13T13:36:50;2.17;;;1.55;;
64282;SDS011;50497;50.720;-2.084;2023-07-13T13:42:01;3.67;;;3.47;;
64282;SDS011;50497;50.720;-2.084;2023-07-13T13:46:53;0.15;;;0.15;;
64282;SDS011;50497;50.720;-2.084;2023-07-13T13:49:21;14.07;;;13.07;;
64282;SDS011;50497;50.720;-2.084;2023-07-13T13:51:49;14.50;;;13.10;;
64282;SDS011;50497;50.720;-2.084;2023-07-13T13:54:15;9.73;;;8.98;;
64282;SDS011;50497;50.720;-2.084;2023-07-13T13:56:42;26.88;;;24.80;;
64282;SDS011;50497;50.720;-2.084;2023-07-13T13:59:09;0.80;;;0.43;;
64282;SDS011;50497;50.720;-2.084;2023-07-13T14:01:34;3.95;;;1.45;;
64282;SDS011;50497;50.720;-2.084;2023-07-13T14:04:00;0.00;;;0.00;;
64282;SDS011;50497;50.720;-2.084;2023-07-13T14:06:26;0.00;;;0.00;;
64282;SDS011;50497;50.720;-2.084;2023-07-13T14:08:52;0.00;;;0.00;;
64282;SDS011;50497;50.720;-2.084;2023-07-13T14:11:18;0.00;;;0.00;;
64282;SDS011;50497;50.720;-2.084;2023-07-13T14:13:47;0.00;;;0.00;;
64282;SDS011;50497;50.720;-2.084;2023-07-13T14:16:18;0.00;;;0.00;;
64282;SDS011;50497;50.720;-2.084;2023-07-13T14:18:46;0.00;;;0.00;;
64282;SDS011;50497;50.720;-2.084;2023-07-13T14:21:17;2.92;;;2.72;;
64282;SDS011;50497;50.720;-2.084;2023-07-13T14:23:45;4.18;;;3.97;;
64282;SDS011;50497;50.720;-2.084;2023-07-13T14:26:12;0.00;;;0.00;;
64282;SDS011;50497;50.720;-2.084;2023-07-13T14:28:50;0.00;;;0.00;;
64282;SDS011;50497;50.720;-2.084;2023-07-13T14:31:19;11.43;;;10.80;;
64282;SDS011;50497;50.720;-2.084;2023-07-13T14:33:45;0.00;;;0.00;;
64282;SDS011;50497;50.720;-2.084;2023-07-13T14:36:29;0.00;;;0.00;;
64282;SDS011;50497;50.720;-2.084;2023-07-13T14:39:00;0.00;;;0.00;;
64282;SDS011;50497;50.720;-2.084;2023-07-13T14:41:31;0.00;;;0.00;;
64282;SDS011;50497;50.720;-2.084;2023-07-13T14:43:56;0.00;;;0.00;;
64282;SDS011;50497;50.720;-2.084;2023-07-13T14:48:47;8.35;;;4.47;;
64282;SDS011;50497;50.720;-2.084;2023-07-13T14:51:14;11.25;;;7.45;;
64282;SDS011;50497;50.720;-2.084;2023-07-13T14:53:39;8.48;;;4.00;;
64282;SDS011;50497;50.720;-2.084;2023-07-13T14:56:11;8.32;;;2.40;;
64282;SDS011;50497;50.720;-2.084;2023-07-13T14:58:37;10.63;;;3.53;;
64282;SDS011;50497;50.720;-2.084;2023-07-13T15:01:07;6.63;;;2.83;;
64282;SDS011;50497;50.720;-2.084;2023-07-13T15:03:41;7.35;;;4.60;;
64282;SDS011;50497;50.720;-2.084;2023-07-13T15:06:10;9.48;;;8.60;;
64282;SDS011;50497;50.720;-2.084;2023-07-13T15:08:37;0.00;;;0.00;;
64282;SDS011;50497;50.720;-2.084;2023-07-13T15:11:02;0.00;;;0.00;;
64282;SDS011;50497;50.720;-2.084;2023-07-13T15:13:30;0.00;;;0.00;;
64282;SDS011;50497;50.720;-2.084;2023-07-13T15:18:22;0.00;;;0.00;;
64282;SDS011;50497;50.720;-2.084;2023-07-13T15:20:50;0.00;;;0.00;;
64282;SDS011;50497;50.720;-2.084;2023-07-13T15:23:17;0.00;;;0.00;;
64282;SDS011;50497;50.720;-2.084;2023-07-13T15:28:09;0.00;;;0.00;;
64282;SDS011;50497;50.720;-2.084;2023-07-13T15:30:39;0.00;;;0.00;;
64282;SDS011;50497;50.720;-2.084;2023-07-13T15:33:11;0.00;;;0.00;;
64282;SDS011;50497;50.720;-2.084;2023-07-13T15:35:48;0.00;;;0.00;;
64282;SDS011;50497;50.720;-2.084;2023-07-13T15:38:17;0.00;;;0.00;;
64282;SDS011;50497;50.720;-2.084;2023-07-13T15:40:46;0.00;;;0.00;;
64282;SDS011;50497;50.720;-2.084;2023-07-13T15:43:13;0.00;;;0.00;;
64282;SDS011;50497;50.720;-2.084;2023-07-13T15:45:40;0.00;;;0.00;;
64282;SDS011;50497;50.720;-2.084;2023-07-13T15:48:12;0.52;;;0.10;;
64282;SDS011;50497;50.720;-2.084;2023-07-13T15:50:55;0.00;;;0.00;;
64282;SDS011;50497;50.720;-2.084;2023-07-13T15:53:29;0.00;;;0.00;;
64282;SDS011;50497;50.720;-2.084;2023-07-13T15:55:57;0.00;;;0.00;;